Time;durP1;ratioP1;P1;durP2;ratioP2;P2;SDS_P1;SDS_P2;PMS_P1;PMS_P2;Temp;Humidity;BMP_temperature;BMP_pressure;BME280_temperature;BME280_humidity;BME280_pressure;Samples;Min_cycle;Max_cycle;Signal;HPM_P1;HPM_P2
2021/01/14 00:01:16;;;;;;;3.65;2.38;;;0.70;99.90;;;;;;4949376;28;20635;-71
2021/01/14 00:03:41;;;;;;;7.55;2.40;;;0.70;99.90;;;;;;4946910;28;20038;-71
2021/01/14 00:06:07;;;;;;;8.15;2.80;;;0.70;99.90;;;;;;4955375;28;20043;-71
2021/01/14 00:08:33;;;;;;;9.38;2.33;;;0.70;99.90;;;;;;4949856;28;20120;-72
2021/01/14 00:11:00;;;;;;;3.55;2.72;;;0.70;99.90;;;;;;4947219;28;20043;-71
2021/01/14 00:13:25;;;;;;;5.72;2.20;;;0.70;99.90;;;;;;4958290;28;20924;-71
2021/01/14 00:15:51;;;;;;;5.60;2.15;;;0.70;99.90;;;;;;4946711;28;20031;-71
2021/01/14 00:18:16;;;;;;;7.38;2.70;;;0.70;99.90;;;;;;4948255;28;20085;-71
2021/01/14 00:20:42;;;;;;;8.73;2.72;;;0.70;99.90;;;;;;4948653;28;20031;-72
2021/01/14 00:23:08;;;;;;;6.82;3.38;;;0.60;99.90;;;;;;4961945;28;20094;-71
2021/01/14 00:25:33;;;;;;;11.10;2.67;;;0.60;99.90;;;;;;4948299;28;20490;-72
2021/01/14 00:27:59;;;;;;;6.85;2.88;;;0.60;99.90;;;;;;4946956;28;20479;-71
2021/01/14 00:30:28;;;;;;;12.18;3.00;;;0.50;99.90;;;;;;4949711;28;20039;-71
2021/01/14 00:32:55;;;;;;;12.98;3.97;;;0.40;99.90;;;;;;4946547;28;20035;-71
2021/01/14 00:35:20;;;;;;;12.65;4.18;;;0.40;99.90;;;;;;4966065;28;20031;-71
2021/01/14 00:37:52;;;;;;;7.00;3.75;;;0.50;99.90;;;;;;4952207;28;20502;-71
2021/01/14 00:40:21;;;;;;;9.48;4.20;;;0.40;99.90;;;;;;4950887;28;20837;-71
2021/01/14 00:42:58;;;;;;;10.05;4.00;;;0.40;99.90;;;;;;4966321;28;20035;-71
2021/01/14 00:45:24;;;;;;;12.35;4.47;;;0.30;99.90;;;;;;4949809;28;20031;-71
2021/01/14 00:47:50;;;;;;;13.23;4.47;;;0.40;99.90;;;;;;4952006;28;20073;-71
2021/01/14 00:50:16;;;;;;;16.33;4.95;;;0.30;99.90;;;;;;4966262;28;20043;-71
2021/01/14 00:52:42;;;;;;;11.40;4.70;;;0.30;99.90;;;;;;4951056;28;20035;-71
2021/01/14 00:55:08;;;;;;;11.52;4.82;;;0.40;99.90;;;;;;4965841;28;20031;-69
2021/01/14 00:57:35;;;;;;;11.13;4.72;;;0.40;99.90;;;;;;4949613;28;20157;-69
2021/01/14 01:00:05;;;;;;;9.65;4.53;;;0.40;99.90;;;;;;4967310;28;20046;-69
2021/01/14 01:02:30;;;;;;;8.88;4.95;;;0.40;99.90;;;;;;4950921;28;20073;-69
2021/01/14 01:04:56;;;;;;;9.65;4.88;;;0.40;99.90;;;;;;4945627;28;20119;-69
2021/01/14 01:07:21;;;;;;;10.55;4.90;;;0.40;99.90;;;;;;4948546;28;20443;-69
2021/01/14 01:09:47;;;;;;;12.25;4.72;;;0.50;99.90;;;;;;4946457;28;20039;-70
2021/01/14 01:12:13;;;;;;;6.45;4.13;;;0.50;99.90;;;;;;4962058;28;20071;-69
2021/01/14 01:14:38;;;;;;;7.28;4.40;;;0.40;99.90;;;;;;4946328;28;20782;-69
2021/01/14 01:17:04;;;;;;;8.48;3.47;;;0.40;99.90;;;;;;4945099;28;20039;-70
2021/01/14 01:19:30;;;;;;;8.82;4.40;;;0.40;99.90;;;;;;4963651;28;20038;-69
2021/01/14 01:21:55;;;;;;;6.85;4.03;;;0.50;99.90;;;;;;4945987;28;20035;-71
2021/01/14 01:24:21;;;;;;;6.25;3.45;;;0.50;99.90;;;;;;4962305;28;20042;-69
2021/01/14 01:26:52;;;;;;;9.32;3.88;;;0.50;99.90;;;;;;4944871;28;20035;-70
2021/01/14 01:29:18;;;;;;;6.75;3.15;;;0.60;99.90;;;;;;4962791;28;20031;-70
2021/01/14 01:31:44;;;;;;;8.70;3.17;;;0.60;99.90;;;;;;4953838;28;20451;-70
2021/01/14 01:34:10;;;;;;;6.50;3.05;;;0.70;99.90;;;;;;4967230;28;20035;-69
2021/01/14 01:36:36;;;;;;;5.25;2.42;;;0.70;99.90;;;;;;4948894;28;20035;-70
2021/01/14 01:39:02;;;;;;;3.45;2.47;;;0.70;99.90;;;;;;4967011;28;20085;-70
2021/01/14 01:41:28;;;;;;;5.20;2.33;;;0.70;99.90;;;;;;4949069;28;20102;-70
2021/01/14 01:43:53;;;;;;;4.80;2.22;;;0.70;99.90;;;;;;4966622;28;20439;-70
2021/01/14 01:46:30;;;;;;;4.72;2.10;;;0.70;99.90;;;;;;4949311;28;20119;-69
2021/01/14 01:48:57;;;;;;;3.88;2.15;;;0.80;99.90;;;;;;4944374;28;20130;-69
2021/01/14 01:51:30;;;;;;;7.47;2.40;;;0.80;99.90;;;;;;4948660;28;20039;-69
2021/01/14 01:53:55;;;;;;;2.42;1.90;;;0.80;99.90;;;;;;4950152;28;20042;-69
2021/01/14 01:56:22;;;;;;;2.55;2.00;;;0.80;99.90;;;;;;4949587;28;20054;-69
2021/01/14 01:58:49;;;;;;;3.58;2.17;;;0.80;99.90;;;;;;4965741;28;20035;-70
2021/01/14 02:01:14;;;;;;;3.08;1.83;;;0.80;99.90;;;;;;4949133;28;20030;-70
2021/01/14 02:03:40;;;;;;;3.38;2.00;;;0.70;99.90;;;;;;4950045;28;20037;-70
2021/01/14 02:06:10;;;;;;;3.58;1.90;;;0.70;99.90;;;;;;4951007;28;20451;-70
2021/01/14 02:09:01;;;;;;;2.28;1.77;;;0.70;99.90;;;;;;4949158;28;20042;-69
2021/01/14 02:11:37;;;;;;;1.98;1.70;;;0.70;99.90;;;;;;4966169;28;20146;-69
2021/01/14 02:14:23;;;;;;;1.98;1.75;;;0.70;99.90;;;;;;4970129;28;20085;-69
2021/01/14 02:16:50;;;;;;;;;;;0.70;99.90;;;;;;4952725;28;20071;-69
2021/01/14 02:19:22;;;;;;;2.30;1.65;;;0.70;99.90;;;;;;4950738;28;19954;-69
2021/01/14 02:21:54;;;;;;;2.80;1.60;;;0.70;99.90;;;;;;4948217;28;20065;-69
2021/01/14 02:25:11;;;;;;;2.72;1.73;;;0.70;99.90;;;;;;4950759;28;20081;-69
2021/01/14 02:27:38;;;;;;;5.43;1.88;;;0.70;99.90;;;;;;4945698;28;20071;-69
2021/01/14 02:30:09;;;;;;;4.03;1.60;;;0.70;99.90;;;;;;4953808;28;20100;-69
2021/01/14 02:32:34;;;;;;;3.25;1.55;;;0.80;99.90;;;;;;4952884;28;20043;-69
2021/01/14 02:35:00;;;;;;;6.93;1.70;;;0.60;99.90;;;;;;4955059;28;20038;-69
2021/01/14 02:37:26;;;;;;;5.00;2.67;;;0.60;99.90;;;;;;4951153;28;20070;-69
2021/01/14 02:39:52;;;;;;;2.47;1.90;;;0.70;99.90;;;;;;4954755;28;20030;-69
2021/01/14 02:42:17;;;;;;;2.28;1.63;;;0.70;99.90;;;;;;4967832;28;20093;-69
2021/01/14 02:44:43;;;;;;;2.38;1.50;;;0.60;99.90;;;;;;4953528;28;20118;-69
2021/01/14 02:47:11;;;;;;;1.80;1.40;;;0.60;99.90;;;;;;4967587;28;20039;-69
2021/01/14 02:49:49;;;;;;;2.55;1.85;;;0.70;99.90;;;;;;4957863;28;20114;-69
2021/01/14 02:52:16;;;;;;;5.20;1.60;;;0.70;99.90;;;;;;4953013;28;20077;-69
2021/01/14 02:54:43;;;;;;;4.82;1.63;;;0.70;99.90;;;;;;4952884;28;20035;-69
2021/01/14 02:57:10;;;;;;;3.97;1.73;;;0.70;99.90;;;;;;4967895;28;20074;-69
2021/01/14 02:59:38;;;;;;;6.32;2.00;;;0.70;99.90;;;;;;4950510;28;20044;-69
2021/01/14 03:02:03;;;;;;;3.42;1.90;;;0.70;99.90;;;;;;4954795;28;20837;-69
2021/01/14 03:04:29;;;;;;;4.85;1.88;;;0.70;99.90;;;;;;4949865;28;20031;-69
2021/01/14 03:06:55;;;;;;;4.45;1.80;;;0.60;99.90;;;;;;4953894;28;20034;-69
2021/01/14 03:09:20;;;;;;;3.50;1.80;;;0.60;99.90;;;;;;4966775;28;20045;-69
2021/01/14 03:11:46;;;;;;;3.38;1.88;;;0.60;99.90;;;;;;4958917;28;20081;-69
2021/01/14 03:14:12;;;;;;;2.80;1.95;;;0.70;99.90;;;;;;4953428;28;20037;-69
2021/01/14 03:16:39;;;;;;;2.60;1.80;;;0.60;99.90;;;;;;4951488;28;20510;-69
2021/01/14 03:19:06;;;;;;;6.43;2.15;;;0.60;99.90;;;;;;4953936;28;20046;-69
2021/01/14 03:21:31;;;;;;;3.47;1.92;;;0.60;99.90;;;;;;4956492;28;20039;-69
2021/01/14 03:23:57;;;;;;;3.58;1.85;;;0.70;99.90;;;;;;4954315;28;20902;-69
2021/01/14 03:26:23;;;;;;;4.85;2.30;;;0.70;99.90;;;;;;4965761;28;20027;-69
2021/01/14 03:28:50;;;;;;;4.57;2.08;;;0.70;99.90;;;;;;4953899;28;20142;-69
2021/01/14 03:31:16;;;;;;;4.70;1.73;;;0.60;99.90;;;;;;4952240;28;20035;-69
2021/01/14 03:33:43;;;;;;;4.50;2.00;;;0.70;99.90;;;;;;4952802;28;20734;-69
2021/01/14 03:36:13;;;;;;;3.45;2.10;;;0.70;99.90;;;;;;4952351;28;20160;-69
2021/01/14 03:38:39;;;;;;;5.78;2.22;;;0.60;99.90;;;;;;4957316;28;20050;-69
2021/01/14 03:41:08;;;;;;;7.18;2.53;;;0.70;99.90;;;;;;4951392;28;20819;-69
2021/01/14 03:43:34;;;;;;;6.22;2.20;;;0.70;99.90;;;;;;4956337;28;20030;-70
2021/01/14 03:46:00;;;;;;;4.75;2.60;;;0.60;99.90;;;;;;4964047;28;20033;-70
2021/01/14 03:48:25;;;;;;;4.70;2.08;;;0.60;99.90;;;;;;4964310;28;20043;-69
2021/01/14 03:50:51;;;;;;;5.13;2.63;;;0.60;99.90;;;;;;4953461;28;20039;-70
2021/01/14 03:53:17;;;;;;;4.40;2.53;;;0.60;99.90;;;;;;4950314;28;20045;-69
2021/01/14 03:55:42;;;;;;;5.40;2.67;;;0.60;99.90;;;;;;4955614;28;20053;-69
2021/01/14 03:58:08;;;;;;;3.78;2.28;;;0.70;99.90;;;;;;4947528;28;20601;-70
2021/01/14 04:00:34;;;;;;;6.00;2.67;;;0.70;99.90;;;;;;4950336;28;20042;-70
2021/01/14 04:03:00;;;;;;;5.72;2.58;;;0.70;99.90;;;;;;4947640;28;20032;-75
2021/01/14 04:05:26;;;;;;;4.40;2.22;;;0.60;99.90;;;;;;4950658;28;20046;-70
2021/01/14 04:07:51;;;;;;;4.78;2.35;;;0.60;99.90;;;;;;4946207;28;20458;-70
2021/01/14 04:10:17;;;;;;;6.72;2.50;;;0.60;99.90;;;;;;4963797;28;20074;-70
2021/01/14 04:12:43;;;;;;;4.18;2.42;;;0.70;99.90;;;;;;4964253;28;20031;-70
2021/01/14 04:15:09;;;;;;;8.68;2.95;;;0.70;99.90;;;;;;4962113;28;20050;-70
2021/01/14 04:17:34;;;;;;;6.60;2.60;;;0.70;99.90;;;;;;4964379;28;20045;-70
2021/01/14 04:20:00;;;;;;;3.97;2.47;;;0.70;99.90;;;;;;4947498;28;20042;-70
2021/01/14 04:22:26;;;;;;;6.05;2.55;;;0.70;99.90;;;;;;4958610;28;20034;-70
2021/01/14 04:24:51;;;;;;;9.38;2.70;;;0.70;99.90;;;;;;4947901;28;20031;-70
2021/01/14 04:27:17;;;;;;;9.63;3.10;;;0.70;99.90;;;;;;4963373;28;20129;-70
2021/01/14 04:29:42;;;;;;;6.57;3.00;;;0.70;99.90;;;;;;4948404;28;20034;-70
2021/01/14 04:32:08;;;;;;;9.02;2.90;;;0.70;99.90;;;;;;4952719;28;20065;-70
2021/01/14 04:34:34;;;;;;;5.35;2.58;;;0.80;99.90;;;;;;4950450;28;20109;-70
2021/01/14 04:37:01;;;;;;;5.30;2.63;;;0.80;99.90;;;;;;4952353;28;20145;-70
2021/01/14 04:39:28;;;;;;;6.03;2.58;;;0.80;99.90;;;;;;4950419;28;20049;-70
2021/01/14 04:41:59;;;;;;;5.18;2.70;;;0.70;99.90;;;;;;4953336;28;20070;-70
2021/01/14 04:44:26;;;;;;;6.75;3.20;;;0.70;99.90;;;;;;4965459;28;20082;-70
2021/01/14 04:47:02;;;;;;;10.55;2.90;;;0.80;99.90;;;;;;4952808;28;20030;-70
2021/01/14 04:49:28;;;;;;;12.20;3.70;;;0.70;99.90;;;;;;4949749;28;20130;-70
2021/01/14 04:51:58;;;;;;;5.82;2.63;;;0.70;99.90;;;;;;4953020;28;20065;-70
2021/01/14 04:54:33;;;;;;;6.10;3.40;;;0.70;99.90;;;;;;4964904;28;20034;-70
2021/01/14 04:57:04;;;;;;;6.07;3.47;;;0.70;99.90;;;;;;4951352;28;20038;-69
2021/01/14 04:59:32;;;;;;;9.40;3.35;;;0.80;99.90;;;;;;4949076;28;20066;-70
2021/01/14 05:01:58;;;;;;;11.07;3.67;;;0.80;99.90;;;;;;4946313;28;20031;-69
2021/01/14 05:04:30;;;;;;;7.28;3.17;;;0.80;99.90;;;;;;4962945;28;20114;-69
2021/01/14 05:06:58;;;;;;;7.43;3.72;;;0.80;99.90;;;;;;4951110;28;20037;-69
2021/01/14 05:09:25;;;;;;;7.38;3.47;;;0.70;99.90;;;;;;4947940;28;20054;-69
2021/01/14 05:12:01;;;;;;;9.55;3.40;;;0.70;99.90;;;;;;4951618;28;20034;-69
2021/01/14 05:14:26;;;;;;;;;;;0.70;99.90;;;;;;4964382;28;20036;-69
2021/01/14 05:16:52;;;;;;;8.07;2.75;;;0.70;99.90;;;;;;4951071;28;19913;-70
2021/01/14 05:19:19;;;;;;;10.45;3.10;;;0.70;99.90;;;;;;4950371;28;20042;-70
2021/01/14 05:21:45;;;;;;;5.35;3.15;;;0.70;99.90;;;;;;4950558;28;20037;-70
2021/01/14 05:24:13;;;;;;;4.75;2.60;;;0.60;99.90;;;;;;4951362;28;20067;-70
2021/01/14 05:26:43;;;;;;;8.85;3.25;;;0.70;99.90;;;;;;4949654;28;20031;-70
2021/01/14 05:29:20;;;;;;;8.30;3.15;;;0.70;99.90;;;;;;4975112;28;20041;-75
2021/01/14 05:31:47;;;;;;;6.13;2.75;;;0.60;99.90;;;;;;4949232;28;20413;-75
2021/01/14 05:34:14;;;;;;;7.70;3.13;;;0.70;99.90;;;;;;4947609;28;20043;-75
2021/01/14 05:36:55;;;;;;;10.88;3.38;;;0.70;99.90;;;;;;4949409;28;20074;-75
2021/01/14 05:39:23;;;;;;;7.30;3.75;;;0.60;99.90;;;;;;4950204;28;20728;-75
2021/01/14 05:41:49;;;;;;;7.22;3.60;;;0.70;99.90;;;;;;4951403;28;20046;-75
2021/01/14 05:44:15;;;;;;;10.32;4.97;;;0.80;99.90;;;;;;4949662;28;20035;-75
2021/01/14 05:46:40;;;;;;;9.82;4.82;;;0.70;99.90;;;;;;4953166;28;20038;-75
2021/01/14 05:49:10;;;;;;;9.18;4.75;;;0.80;99.90;;;;;;4955389;28;20904;-75
2021/01/14 05:51:36;;;;;;;8.32;4.35;;;0.80;99.90;;;;;;4950294;28;20039;-75
2021/01/14 05:54:06;;;;;;;10.40;5.38;;;0.80;99.90;;;;;;4949776;28;20031;-75
2021/01/14 05:56:35;;;;;;;11.00;5.15;;;0.80;99.90;;;;;;4952468;28;20125;-75
2021/01/14 05:59:06;;;;;;;9.70;4.63;;;0.80;99.90;;;;;;4947596;28;20047;-75
2021/01/14 06:01:32;;;;;;;8.43;4.80;;;0.80;99.90;;;;;;4969739;28;20113;-74
2021/01/14 06:04:14;;;;;;;17.42;5.35;;;0.80;99.90;;;;;;4949024;28;20486;-75
2021/01/14 06:06:44;;;;;;;10.05;4.95;;;0.80;99.90;;;;;;4964901;28;20034;-74
2021/01/14 06:09:18;;;;;;;11.43;4.85;;;0.80;99.90;;;;;;4952080;28;20046;-74
2021/01/14 06:11:45;;;;;;;9.93;5.30;;;0.80;99.90;;;;;;4953482;28;20570;-74
2021/01/14 06:14:32;;;;;;;11.82;4.78;;;0.80;99.90;;;;;;4971745;28;20073;-74
2021/01/14 06:17:06;;;;;;;12.68;5.70;;;0.80;99.90;;;;;;4957483;28;20474;-74
2021/01/14 06:19:33;;;;;;;10.60;5.40;;;0.80;99.90;;;;;;4951803;28;20562;-74
2021/01/14 06:21:59;;;;;;;15.02;6.07;;;0.80;99.90;;;;;;4953924;28;20037;-73
2021/01/14 06:24:36;;;;;;;9.35;5.38;;;0.70;99.90;;;;;;4950357;28;20036;-73
2021/01/14 06:27:04;;;;;;;10.00;5.63;;;0.70;99.90;;;;;;4952413;28;20097;-74
2021/01/14 06:29:32;;;;;;;10.82;5.07;;;0.70;99.90;;;;;;4951729;28;20045;-74
2021/01/14 06:32:17;;;;;;;8.98;4.78;;;0.70;99.90;;;;;;4971611;28;20054;-74
2021/01/14 06:34:44;;;;;;;9.95;5.30;;;0.70;99.90;;;;;;4961091;28;20429;-75
2021/01/14 06:37:15;;;;;;;9.88;5.63;;;0.70;99.90;;;;;;4954730;28;20142;-74
2021/01/14 06:39:46;;;;;;;8.45;4.68;;;0.70;99.90;;;;;;4957200;28;20035;-74
2021/01/14 06:42:19;;;;;;;12.00;5.00;;;0.80;99.90;;;;;;4954176;28;20027;-74
2021/01/14 06:44:58;;;;;;;10.70;4.63;;;0.70;99.90;;;;;;4955401;28;20030;-74
2021/01/14 06:47:40;;;;;;;10.88;5.20;;;0.70;99.90;;;;;;4955622;28;20039;-74
2021/01/14 06:50:15;;;;;;;12.30;5.20;;;0.60;99.90;;;;;;4956479;28;20038;-74
2021/01/14 06:52:52;;;;;;;10.63;5.20;;;0.70;99.90;;;;;;4951995;28;20062;-76
2021/01/14 06:55:23;;;;;;;13.93;5.28;;;0.70;99.90;;;;;;4951912;28;20381;-74
2021/01/14 06:58:16;;;;;;;9.48;4.95;;;0.70;99.90;;;;;;4951174;28;20097;-74
2021/01/14 07:00:47;;;;;;;11.85;4.95;;;0.70;99.90;;;;;;4950915;28;20113;-74
2021/01/14 07:03:13;;;;;;;13.57;5.45;;;0.80;99.90;;;;;;4959612;28;20043;-74
2021/01/14 07:05:54;;;;;;;15.55;6.28;;;0.80;99.90;;;;;;4964817;28;20101;-74
2021/01/14 07:08:32;;;;;;;13.15;5.78;;;0.80;99.90;;;;;;4955620;28;20130;-74
2021/01/14 07:11:14;;;;;;;15.23;5.68;;;0.70;99.90;;;;;;4955673;28;20042;-73
2021/01/14 07:13:43;;;;;;;13.93;5.93;;;0.70;99.90;;;;;;4957290;28;20126;-73
2021/01/14 07:16:11;;;;;;;13.80;5.72;;;0.70;99.90;;;;;;4955917;28;20050;-74
2021/01/14 07:18:38;;;;;;;9.50;5.03;;;0.70;99.90;;;;;;4949684;28;20039;-74
2021/01/14 07:21:13;;;;;;;14.52;6.00;;;0.60;99.90;;;;;;4955516;28;20027;-73
2021/01/14 07:23:48;;;;;;;9.10;5.32;;;0.60;99.90;;;;;;4952467;28;20078;-74
2021/01/14 07:26:14;;;;;;;;;;;0.70;99.90;;;;;;4954086;28;20047;-74
2021/01/14 07:28:40;;;;;;;14.48;6.28;;;0.70;99.90;;;;;;4956533;28;20017;-73
2021/01/14 07:31:25;;;;;;;12.65;6.18;;;0.70;99.90;;;;;;4961387;28;20053;-73
2021/01/14 07:33:52;;;;;;;14.05;6.43;;;0.60;99.90;;;;;;4959786;28;20047;-74
2021/01/14 07:36:28;;;;;;;14.25;6.15;;;0.70;99.90;;;;;;4960301;28;20126;-73
2021/01/14 07:38:56;;;;;;;11.48;5.90;;;0.70;99.90;;;;;;4953392;28;20038;-74
2021/01/14 07:41:22;;;;;;;15.15;5.90;;;0.80;99.90;;;;;;4954142;28;20455;-77
2021/01/14 07:43:50;;;;;;;11.48;5.85;;;0.80;99.90;;;;;;4947460;28;20415;-75
2021/01/14 07:46:20;;;;;;;11.15;5.20;;;0.70;99.90;;;;;;4954726;28;20039;-74
2021/01/14 07:48:46;;;;;;;14.18;5.00;;;0.70;99.90;;;;;;4957925;28;20042;-72
2021/01/14 07:51:12;;;;;;;9.52;5.07;;;0.70;99.90;;;;;;4951969;28;20062;-72
2021/01/14 07:53:38;;;;;;;12.77;5.47;;;0.70;99.90;;;;;;4968037;28;20035;-72
2021/01/14 07:56:25;;;;;;;10.55;5.63;;;0.70;99.90;;;;;;4955856;28;20074;-72
2021/01/14 07:58:56;;;;;;;13.38;4.90;;;0.70;99.90;;;;;;4953992;28;20070;-72
2021/01/14 08:01:22;;;;;;;13.70;4.72;;;0.70;99.90;;;;;;4954902;28;20173;-72
2021/01/14 08:03:48;;;;;;;13.45;6.20;;;0.80;99.90;;;;;;4955528;28;20042;-72
2021/01/14 08:06:22;;;;;;;12.35;4.72;;;0.70;99.90;;;;;;4954601;28;20085;-72
2021/01/14 08:09:07;;;;;;;13.50;5.60;;;0.90;99.90;;;;;;4951379;28;20075;-72
2021/01/14 08:11:36;;;;;;;8.85;4.25;;;0.90;99.90;;;;;;4963789;28;20053;-72
2021/01/14 08:14:16;;;;;;;13.52;3.78;;;1.00;99.90;;;;;;4952892;28;20189;-72
2021/01/14 08:16:55;;;;;;;12.20;4.63;;;1.10;99.90;;;;;;4949521;28;20078;-74
2021/01/14 08:19:35;;;;;;;13.52;4.50;;;1.10;99.90;;;;;;4957098;28;20518;-72
2021/01/14 08:22:01;;;;;;;6.65;3.70;;;1.30;99.90;;;;;;4963832;28;20042;-73
2021/01/14 08:24:59;;;;;;;14.40;5.55;;;1.40;99.90;;;;;;4950682;28;20034;-74
2021/01/14 08:27:29;;;;;;;11.68;3.90;;;1.50;99.90;;;;;;4950072;28;20050;-72
2021/01/14 08:30:04;;;;;;;12.40;3.80;;;1.50;99.90;;;;;;4957774;28;20138;-73
2021/01/14 08:32:39;;;;;;;8.18;3.50;;;1.50;99.90;;;;;;4968592;28;20098;-75
2021/01/14 08:35:16;;;;;;;9.25;3.35;;;1.50;99.90;;;;;;4950514;28;20030;-75
2021/01/14 08:37:46;;;;;;;10.35;3.33;;;1.50;99.90;;;;;;4959812;28;20491;-75
2021/01/14 08:40:33;;;;;;;20.42;6.40;;;1.50;99.90;;;;;;4950221;28;20027;-78
2021/01/14 08:43:04;;;;;;;13.95;3.72;;;1.60;99.90;;;;;;4951798;28;20034;-77
2021/01/14 08:45:45;;;;;;;7.20;3.33;;;1.50;99.90;;;;;;4953900;28;20057;-75
2021/01/14 08:48:29;;;;;;;9.95;3.30;;;1.60;99.90;;;;;;4955640;28;20838;-79
2021/01/14 08:50:55;;;;;;;6.10;2.72;;;1.50;99.90;;;;;;4945635;28;20034;-75
2021/01/14 08:53:29;;;;;;;15.32;6.47;;;1.60;99.90;;;;;;4959368;28;20537;-77
2021/01/14 08:56:04;;;;;;;6.63;2.92;;;1.60;99.90;;;;;;4949405;28;20047;-76
2021/01/14 08:58:37;;;;;;;4.60;2.50;;;1.50;99.90;;;;;;4957286;28;20050;-75
2021/01/14 09:01:05;;;;;;;9.77;3.20;;;1.60;99.90;;;;;;4958667;28;20031;-75
2021/01/14 09:03:32;;;;;;;7.90;2.92;;;1.60;99.90;;;;;;4958937;28;20812;-78
2021/01/14 09:05:58;;;;;;;8.10;2.50;;;1.60;99.90;;;;;;4956641;28;20039;-76
2021/01/14 09:08:23;;;;;;;9.30;3.42;;;1.60;99.90;;;;;;4957111;28;20042;-76
2021/01/14 09:10:54;;;;;;;5.80;2.80;;;1.60;99.90;;;;;;4947137;28;20050;-76
2021/01/14 09:13:21;;;;;;;7.65;2.83;;;1.70;99.90;;;;;;4953800;28;20820;-79
2021/01/14 09:15:47;;;;;;;6.20;2.72;;;1.80;99.90;;;;;;4954150;28;20121;-76
2021/01/14 09:18:15;;;;;;;6.00;2.97;;;2.00;99.90;;;;;;4952749;28;20043;-77
2021/01/14 09:20:41;;;;;;;7.93;3.38;;;1.90;99.90;;;;;;4942135;28;20069;-76
2021/01/14 09:23:17;;;;;;;13.95;5.95;;;2.00;99.90;;;;;;4956731;28;20026;-76
2021/01/14 09:25:45;;;;;;;14.13;4.57;;;2.00;99.90;;;;;;4953863;28;20058;-79
2021/01/14 09:28:11;;;;;;;12.32;4.00;;;1.90;99.90;;;;;;4952376;28;20077;-75
2021/01/14 09:30:38;;;;;;;10.38;3.28;;;2.00;99.90;;;;;;4952522;28;20063;-79
2021/01/14 09:33:04;;;;;;;10.93;3.35;;;1.90;99.90;;;;;;4951833;28;20509;-76
2021/01/14 09:35:30;;;;;;;7.47;3.17;;;1.90;99.90;;;;;;4957208;28;20122;-75
2021/01/14 09:37:56;;;;;;;9.40;4.38;;;1.80;99.90;;;;;;4951817;28;20083;-75
2021/01/14 09:40:22;;;;;;;9.50;4.68;;;1.90;99.90;;;;;;4949818;28;20030;-76
2021/01/14 09:42:52;;;;;;;7.30;4.07;;;1.80;99.90;;;;;;4955074;28;20031;-69
2021/01/14 09:45:21;;;;;;;8.80;5.25;;;1.80;99.90;;;;;;4949104;28;20035;-69
2021/01/14 09:47:52;;;;;;;11.07;5.18;;;1.80;99.90;;;;;;4953138;28;20029;-69
2021/01/14 09:50:19;;;;;;;11.50;5.30;;;1.80;99.90;;;;;;4954722;28;20035;-69
2021/01/14 09:52:45;;;;;;;14.55;6.07;;;1.90;99.90;;;;;;4954480;28;20767;-73
2021/01/14 09:55:14;;;;;;;14.65;6.82;;;1.90;99.90;;;;;;4953321;28;20034;-74
2021/01/14 09:57:55;;;;;;;12.75;6.15;;;2.00;99.90;;;;;;4949766;28;20041;-75
2021/01/14 10:00:25;;;;;;;15.35;6.72;;;1.90;99.90;;;;;;4946990;28;20045;-73
2021/01/14 10:02:58;;;;;;;13.43;7.00;;;2.00;99.90;;;;;;4954535;28;20082;-74
2021/01/14 10:05:25;;;;;;;14.85;7.32;;;2.00;99.90;;;;;;4947675;28;20019;-73
2021/01/14 10:07:54;;;;;;;19.58;8.73;;;2.00;99.90;;;;;;4972552;28;20074;-74
2021/01/14 10:10:21;;;;;;;19.27;8.60;;;2.10;99.90;;;;;;4962770;28;20996;-72
2021/01/14 10:12:58;;;;;;;17.38;8.63;;;2.20;99.90;;;;;;4964566;28;20077;-73
2021/01/14 10:15:24;;;;;;;16.23;7.60;;;2.30;99.90;;;;;;4951367;28;20043;-74
2021/01/14 10:17:49;;;;;;;15.38;7.32;;;2.30;99.90;;;;;;4953835;28;20487;-73
2021/01/14 10:20:15;;;;;;;13.73;7.05;;;2.40;99.90;;;;;;4946906;28;20039;-74
2021/01/14 10:22:53;;;;;;;17.08;7.60;;;2.50;99.90;;;;;;4951303;28;20054;-74
2021/01/14 10:25:21;;;;;;;12.10;6.63;;;2.40;99.90;;;;;;4954422;28;20071;-74
2021/01/14 10:28:00;;;;;;;13.07;7.15;;;2.50;99.90;;;;;;4947789;28;20040;-74
2021/01/14 10:30:26;;;;;;;15.75;7.53;;;2.40;99.90;;;;;;4950328;28;20497;-74
2021/01/14 10:33:03;;;;;;;17.98;7.18;;;2.50;99.90;;;;;;4969361;28;20148;-75
2021/01/14 10:35:30;;;;;;;14.23;7.07;;;2.50;99.90;;;;;;4955945;28;20565;-76
2021/01/14 10:38:14;;;;;;;14.68;7.43;;;2.60;99.90;;;;;;4947923;28;20800;-75
2021/01/14 10:40:51;;;;;;;13.50;7.30;;;2.50;99.90;;;;;;4958257;28;20566;-76
2021/01/14 10:43:34;;;;;;;15.48;7.05;;;2.40;99.90;;;;;;4955114;28;20026;-76
2021/01/14 10:46:01;;;;;;;13.40;7.47;;;2.30;99.90;;;;;;4952715;28;20045;-75
2021/01/14 10:48:37;;;;;;;12.95;7.55;;;2.30;99.90;;;;;;4949207;28;20035;-74
2021/01/14 10:51:03;;;;;;;17.33;8.32;;;2.30;99.90;;;;;;4963405;28;20039;-74
2021/01/14 10:53:31;;;;;;;19.73;8.40;;;2.40;99.90;;;;;;4949278;28;20046;-74
2021/01/14 10:56:11;;;;;;;21.73;9.15;;;2.50;99.90;;;;;;4954285;28;20043;-74
2021/01/14 10:58:39;;;;;;;13.70;7.30;;;2.40;99.90;;;;;;4969885;28;20046;-74
2021/01/14 11:01:18;;;;;;;15.30;7.75;;;2.30;99.90;;;;;;4949328;28;20552;-75
2021/01/14 11:03:44;;;;;;;16.02;7.75;;;2.30;99.90;;;;;;4950566;28;20035;-74
2021/01/14 11:06:09;;;;;;;15.23;7.78;;;2.30;99.90;;;;;;4951809;28;20038;-74
2021/01/14 11:08:42;;;;;;;16.25;7.80;;;2.30;99.90;;;;;;4959090;28;20049;-73
2021/01/14 11:11:10;;;;;;;15.95;7.82;;;2.40;99.90;;;;;;4949354;28;20038;-73
2021/01/14 11:13:37;;;;;;;12.95;7.38;;;2.40;99.90;;;;;;4973828;28;20073;-73
2021/01/14 11:16:04;;;;;;;15.82;8.18;;;2.50;99.90;;;;;;4961536;28;20073;-73
2021/01/14 11:18:30;;;;;;;49.28;25.10;;;2.60;99.90;;;;;;4950130;28;20480;-72
2021/01/14 11:20:56;;;;;;;168.73;73.20;;;2.70;99.90;;;;;;4949698;28;20042;-73
2021/01/14 11:23:22;;;;;;;284.63;134.50;;;2.70;99.90;;;;;;4955058;28;20042;-73
2021/01/14 11:25:47;;;;;;;198.93;83.85;;;2.80;99.90;;;;;;4955520;28;20027;-72
2021/01/14 11:28:13;;;;;;;175.70;69.28;;;2.80;99.90;;;;;;4951988;28;20679;-72
2021/01/14 11:30:38;;;;;;;201.57;80.75;;;2.90;99.90;;;;;;4954559;28;20066;-72
2021/01/14 11:33:04;;;;;;;65.20;27.70;;;3.00;99.90;;;;;;4955926;28;20799;-72
2021/01/14 11:35:30;;;;;;;26.90;13.60;;;3.00;99.90;;;;;;4973141;28;20593;-73
2021/01/14 11:37:55;;;;;;;25.52;12.07;;;3.10;99.90;;;;;;4967699;28;20046;-73
2021/01/14 11:40:21;;;;;;;47.90;24.40;;;3.10;99.90;;;;;;4965567;28;20035;-74
2021/01/14 11:42:47;;;;;;;49.90;25.25;;;3.00;99.90;;;;;;4951763;28;20069;-74
2021/01/14 11:45:13;;;;;;;31.48;16.00;;;2.90;99.90;;;;;;4956536;28;20098;-74
2021/01/14 11:47:38;;;;;;;19.67;10.60;;;2.90;99.90;;;;;;4957648;28;20034;-74
2021/01/14 11:50:05;;;;;;;14.70;7.68;;;3.00;99.90;;;;;;4960017;28;20042;-75
2021/01/14 11:52:30;;;;;;;14.65;6.72;;;3.30;99.90;;;;;;4966369;28;20116;-74
2021/01/14 11:54:56;;;;;;;14.88;7.45;;;3.70;99.90;;;;;;4945344;28;20031;-75
2021/01/14 11:57:27;;;;;;;15.95;8.57;;;4.10;99.90;;;;;;4968887;28;20046;-75
2021/01/14 11:59:53;;;;;;;14.55;8.07;;;4.40;99.90;;;;;;4953353;28;20133;-75
2021/01/14 12:02:19;;;;;;;12.23;6.50;;;4.60;99.90;;;;;;4939431;28;20042;-75
2021/01/14 12:04:45;;;;;;;9.48;5.75;;;4.70;99.90;;;;;;4950968;28;20031;-75
2021/01/14 12:07:10;;;;;;;11.23;5.43;;;4.90;99.90;;;;;;4948458;28;20070;-75
2021/01/14 12:09:36;;;;;;;20.90;10.18;;;5.10;99.90;;;;;;4958755;28;20114;-75
2021/01/14 12:12:02;;;;;;;9.98;6.07;;;5.30;99.90;;;;;;4966701;28;20039;-75
2021/01/14 12:14:28;;;;;;;12.35;5.82;;;5.40;99.90;;;;;;4956372;28;20035;-75
2021/01/14 12:16:53;;;;;;;12.38;6.38;;;5.40;99.90;;;;;;4955179;28;20037;-76
2021/01/14 12:19:20;;;;;;;9.48;5.00;;;5.60;99.90;;;;;;4957683;28;20124;-75
2021/01/14 12:21:45;;;;;;;15.18;5.15;;;5.90;99.90;;;;;;4964580;28;20042;-76
2021/01/14 12:24:11;;;;;;;13.60;5.13;;;6.40;99.90;;;;;;4957441;28;20045;-75
2021/01/14 12:26:37;;;;;;;9.15;4.80;;;6.80;99.90;;;;;;4950172;28;20110;-75
2021/01/14 12:29:03;;;;;;;13.35;5.22;;;6.60;99.90;;;;;;4961620;28;20109;-75
2021/01/14 12:31:34;;;;;;;9.18;5.00;;;6.30;99.90;;;;;;4942262;28;20463;-75
2021/01/14 12:34:00;;;;;;;7.88;4.75;;;6.10;99.90;;;;;;4951900;28;20042;-75
2021/01/14 12:36:25;;;;;;;9.77;5.20;;;5.50;99.90;;;;;;4958965;28;20047;-75
2021/01/14 12:38:51;;;;;;;8.85;5.05;;;4.70;99.90;;;;;;4958937;28;20035;-76
2021/01/14 12:41:16;;;;;;;12.20;5.78;;;4.30;99.90;;;;;;4967310;28;20060;-76
2021/01/14 12:43:42;;;;;;;22.15;9.90;;;4.00;99.90;;;;;;4948588;28;20110;-76
2021/01/14 12:46:08;;;;;;;22.48;10.38;;;3.80;99.90;;;;;;4950874;28;20056;-76
2021/01/14 12:48:35;;;;;;;18.38;8.30;;;3.70;99.90;;;;;;4957783;28;20132;-76
2021/01/14 12:51:01;;;;;;;14.15;6.90;;;3.70;99.90;;;;;;4959085;28;20070;-76
2021/01/14 12:53:26;;;;;;;13.85;6.90;;;3.50;99.90;;;;;;4957633;28;20146;-76
2021/01/14 12:55:52;;;;;;;15.80;6.97;;;3.40;99.90;;;;;;4956802;28;20046;-76
2021/01/14 12:58:18;;;;;;;16.05;7.70;;;3.20;99.90;;;;;;4964027;28;20186;-76
2021/01/14 13:00:45;;;;;;;19.25;8.05;;;3.20;99.90;;;;;;4957099;28;20093;-75
2021/01/14 13:03:10;;;;;;;15.40;7.93;;;3.20;99.90;;;;;;4958927;28;20038;-75